Flight Track Log - Related Links

Times and Time Zones

All times are in EST time to prevent confusion due to time zone crossing. See the N612FE flight status page for this flight to view local times or setup timezone preferences in your user account.

Time Position Orientation Groundspeed Altitude Reporting Facility
EST Latitude Longitude Course Direction KTS MPH feet Rate Location/Type
Mon 01:36:00 AM 5.1682 100.4132 137° Southeast  Level Estimated
Mon 01:37:00 AM 5.1008 100.4767 137° Southeast  Level Estimated
Mon 01:38:00 AM 5.0335 100.5402 137° Southeast  Level Estimated
Mon 01:39:00 AM 4.9662 100.6037 137° Southeast  Level Estimated
Mon 01:40:00 AM 4.8988 100.6672 137° Southeast  Level Estimated
Mon 01:41:00 AM 4.8315 100.7307 137° Southeast  Level Estimated
Mon 01:42:00 AM 4.7641 100.7941 137° Southeast  Level Estimated
Mon 01:43:00 AM 4.6968 100.8576 137° Southeast  Level Estimated
Mon 01:44:00 AM 4.6294 100.9210 137° Southeast  Level Estimated
Mon 01:45:00 AM 4.5620 100.9844 137° Southeast  Level Estimated
Mon 01:46:00 AM 4.4946 101.0479 137° Southeast  Level Estimated
Mon 01:47:00 AM 4.4273 101.1113 137° Southeast  Level Estimated
Mon 01:48:00 AM 4.3599 101.1746 137° Southeast  Level Estimated
Mon 01:49:00 AM 4.2925 101.2380 137° Southeast  Level Estimated
Mon 01:49:13 AM 3.8617 101.3007 137° Southeast 484 557 33,000  Level FlightAware ADS-B
Mon 01:49:54 AM 3.7735 101.3265 164° South 483 556 33,000  Level FlightAware ADS-B
Mon 01:50:34 AM 3.6875 101.3515 164° South 484 557 33,000  Level FlightAware ADS-B
Mon 01:51:13 AM 3.6030 101.3761 164° South 483 556 33,000  Level FlightAware ADS-B
Mon 01:51:44 AM 3.5249 101.3986 164° South 484 557 33,000  Level FlightAware ADS-B
Mon 01:52:14 AM 3.4722 101.4144 163° South 483 556 33,000  Level FlightAware ADS-B
Mon 01:52:47 AM 3.3892 101.4381 164° South 483 556 33,000  Level FlightAware ADS-B
Mon 01:53:34 AM 3.3004 101.4681 161° South 481 554 33,000  Level FlightAware ADS-B
Mon 01:53:48 AM 3.2444 101.4950 154° Southeast 480 552 33,000  Level FlightAware ADS-B
Mon 01:54:35 AM 3.1815 101.5241 155° Southeast 480 552 33,000 69 Level FlightAware ADS-B
Mon 01:55:15 AM 3.0983 101.5630 155° Southeast 480 552 33,100  Climbing FlightAware ADS-B
Mon 01:55:55 AM 3.0153 101.6017 155° Southeast 479 551 33,000 -76 Descending FlightAware ADS-B
Mon 01:56:34 AM 2.9366 101.6385 155° Southeast 479 551 33,000  Level FlightAware ADS-B
Mon 01:57:14 AM 2.8567 101.6764 155° Southeast 479 551 33,000  Level FlightAware ADS-B
Mon 01:57:55 AM 2.7741 101.7149 155° Southeast 478 550 33,000  Level FlightAware ADS-B
Mon 01:58:33 AM 2.6996 101.7536 153° Southeast 478 550 33,000  Level FlightAware ADS-B
Mon 01:59:14 AM 2.6289 101.7976 148° Southeast 480 552 33,000  Level FlightAware ADS-B
Mon 02:00:14 AM 2.5278 101.8942 136° Southeast 476 548 33,000 -998 Level FlightAware ADS-B
Mon 02:12:34 AM 1.5988 103.1303 118° Southeast 344 396 19,700 -1,078 Descending FlightAware ADS-B (WSAT / TGA)
Mon 02:15:00 AM 1.5375 103.3467 106° East  Level Estimated
Mon 02:16:00 AM 1.5123 103.4356 106° East  Level Estimated
Mon 02:17:00 AM 1.4871 103.5245 106° East  Level Estimated
Mon 02:18:00 AM 1.4619 103.6134 106° East  Level Estimated
Mon 02:19:00 AM 1.4366 103.7023 106° East  Level Estimated
Mon 02:20:00 AM 1.4114 103.7912 106° East  Level Estimated
Mon 02:21:00 AM 1.3862 103.8801 106° East  Level Estimated
Mon 02:22:00 AM 1.3609 103.9690 106° East  Level Estimated
Mon 02:23:00 AM 1.3557 103.9875 106° East  Level Estimated
Mon 02:24:00 AM 1.3557 103.9875 214° Southwest  Level Estimated
Mon 02:25:00 AM 1.3557 103.9875 214° Southwest  Level Estimated
Mon 02:26:00 AM 1.3557 103.9875 214° Southwest  Level Estimated
Mon 02:27:00 AM 1.3557 103.9875 214° Southwest  Level Estimated
Mon 02:28:00 AM 1.3557 103.9875 214° Southwest  Level Estimated
Mon 02:29:00 AM 1.3557 103.9875 214° Southwest  Level Estimated
Mon 02:30:00 AM 1.3557 103.9875 214° Southwest  Level Estimated

Login

Don't have an account? Register now (free) for customized features, flight alerts, and more!